Time;durP1;ratioP1;P1;durP2;ratioP2;P2;SDS_P1;SDS_P2;PMS_P1;PMS_P2;Temp;Humidity;BMP_temperature;BMP_pressure;BME280_temperature;BME280_humidity;BME280_pressure;Samples;Min_cycle;Max_cycle;Signal;HPM_P1;HPM_P2
2023/09/15 00:02:18;;;;;;;4.13;1.90;;;23.60;97.20;;;;;;4982184;28;21064;-58
2023/09/15 00:04:46;;;;;;;4.07;1.40;;;23.60;97.20;;;;;;4981628;28;20886;-59
2023/09/15 00:07:14;;;;;;;2.10;1.60;;;23.60;97.30;;;;;;4982092;28;20469;-58
2023/09/15 00:09:42;;;;;;;3.00;1.70;;;23.60;97.40;;;;;;4983604;28;20465;-57
2023/09/15 00:12:09;;;;;;;1.60;1.50;;;23.60;97.40;;;;;;4983910;28;20493;-58
2023/09/15 00:14:36;;;;;;;2.47;1.40;;;23.60;97.50;;;;;;4983912;28;20449;-55
2023/09/15 00:17:04;;;;;;;1.93;1.73;;;23.60;97.50;;;;;;4978626;28;20820;-55
2023/09/15 00:19:31;;;;;;;2.63;1.80;;;23.60;97.50;;;;;;4982818;28;20468;-58
2023/09/15 00:21:58;;;;;;;2.17;1.90;;;23.60;97.60;;;;;;4975597;28;20468;-59
2023/09/15 00:24:24;;;;;;;2.90;2.40;;;23.60;97.60;;;;;;4982900;28;20468;-57
2023/09/15 00:26:53;;;;;;;1.70;1.53;;;23.60;97.60;;;;;;4982230;28;20466;-57
2023/09/15 00:29:19;;;;;;;2.67;1.67;;;23.60;97.70;;;;;;4982877;28;20465;-59
2023/09/15 00:31:46;;;;;;;1.77;1.63;;;23.60;97.70;;;;;;4982059;28;20520;-58
2023/09/15 00:34:14;;;;;;;2.30;2.00;;;23.60;97.70;;;;;;4982108;28;20544;-59
2023/09/15 00:36:42;;;;;;;2.83;2.23;;;23.60;97.70;;;;;;4979899;28;20462;-58
2023/09/15 00:39:09;;;;;;;1.87;1.70;;;23.60;97.70;;;;;;4982284;28;20474;-57
2023/09/15 00:41:36;;;;;;;2.63;1.90;;;23.60;97.80;;;;;;4979680;28;20481;-56
2023/09/15 00:44:05;;;;;;;2.90;1.93;;;23.60;97.80;;;;;;4980157;28;20957;-56
2023/09/15 00:46:31;;;;;;;3.83;1.80;;;23.60;97.80;;;;;;4982392;28;20467;-55
2023/09/15 00:48:59;;;;;;;2.73;1.60;;;23.60;97.80;;;;;;4978359;28;20466;-54
2023/09/15 00:51:26;;;;;;;1.77;1.43;;;23.50;97.80;;;;;;4978491;28;20466;-56
2023/09/15 00:53:55;;;;;;;2.17;1.87;;;23.50;97.90;;;;;;4981315;28;20519;-57
2023/09/15 00:56:22;;;;;;;2.20;1.57;;;23.50;97.90;;;;;;4978840;28;20465;-58
2023/09/15 00:58:49;;;;;;;2.07;1.40;;;23.50;97.90;;;;;;4977124;28;20477;-57
2023/09/15 01:03:54;;;;;;;2.27;2.00;;;23.50;97.90;;;;;;4997388;28;20475;-52
2023/09/15 01:06:23;;;;;;;2.13;1.67;;;23.50;98.00;;;;;;4998120;28;20886;-52
2023/09/15 01:08:49;;;;;;;2.10;1.90;;;23.50;98.00;;;;;;4998359;28;20465;-52
2023/09/15 01:11:16;;;;;;;2.30;1.97;;;23.50;98.00;;;;;;4991522;28;20457;-59
2023/09/15 01:13:43;;;;;;;2.50;2.30;;;23.50;98.00;;;;;;4995242;28;20518;-54
2023/09/15 01:16:16;;;;;;;3.17;2.00;;;23.50;98.10;;;;;;4999534;28;20462;-54
2023/09/15 01:18:51;;;;;;;2.10;1.67;;;23.50;98.10;;;;;;4997610;28;20479;-55
2023/09/15 01:21:55;;;;;;;1.70;1.50;;;23.50;98.10;;;;;;4996775;28;20479;-54
2023/09/15 01:24:51;;;;;;;1.90;1.40;;;23.50;98.10;;;;;;5000223;28;21001;-53
2023/09/15 01:27:40;;;;;;;2.00;1.70;;;23.50;98.10;;;;;;4996899;28;20469;-56
2023/09/15 01:30:08;;;;;;;1.97;1.77;;;23.50;98.10;;;;;;4996664;28;20911;-55
2023/09/15 01:32:37;;;;;;;1.77;1.63;;;23.50;98.20;;;;;;4997934;28;20484;-52
2023/09/15 01:35:04;;;;;;;2.23;1.60;;;23.50;98.20;;;;;;4996424;28;21077;-54
2023/09/15 01:37:31;;;;;;;1.40;1.30;;;23.40;98.20;;;;;;4998015;28;20534;-56
2023/09/15 01:39:59;;;;;;;1.43;1.33;;;23.40;98.20;;;;;;4999162;28;20466;-54
2023/09/15 01:42:26;;;;;;;1.70;1.50;;;23.40;98.20;;;;;;4996109;28;20483;-56
2023/09/15 01:44:54;;;;;;;3.57;2.60;;;23.40;98.20;;;;;;4997236;28;20464;-51
2023/09/15 01:47:23;;;;;;;3.43;2.00;;;23.40;98.30;;;;;;4993061;28;20555;-52
2023/09/15 01:49:51;;;;;;;2.00;1.70;;;23.40;98.30;;;;;;4997129;28;20960;-54
2023/09/15 01:52:18;;;;;;;2.47;1.90;;;23.40;98.30;;;;;;4994876;28;20490;-56
2023/09/15 01:54:46;;;;;;;2.53;1.60;;;23.50;98.40;;;;;;4998098;28;20491;-54
2023/09/15 01:57:12;;;;;;;2.23;1.60;;;23.40;98.30;;;;;;5000581;28;20456;-53
2023/09/15 01:59:39;;;;;;;3.00;2.10;;;23.40;98.30;;;;;;4997857;28;20730;-55
2023/09/15 02:02:06;;;;;;;2.03;1.83;;;23.40;98.40;;;;;;4995068;28;20479;-54
2023/09/15 02:04:34;;;;;;;1.80;1.30;;;23.40;98.40;;;;;;4999155;28;20467;-55
2023/09/15 02:07:01;;;;;;;2.43;1.90;;;23.40;98.40;;;;;;4997963;28;20474;-53
2023/09/15 02:09:28;;;;;;;2.03;1.60;;;23.40;98.40;;;;;;4998003;28;20464;-53
2023/09/15 02:11:54;;;;;;;2.03;1.80;;;23.40;98.40;;;;;;4998437;28;20478;-59
2023/09/15 02:14:21;;;;;;;2.20;1.47;;;23.40;98.50;;;;;;4996451;28;20479;-52
2023/09/15 02:16:48;;;;;;;2.70;1.70;;;23.40;98.50;;;;;;4997562;28;20467;-54
2023/09/15 02:19:14;;;;;;;1.90;1.70;;;23.40;98.50;;;;;;4996666;28;20479;-54
2023/09/15 02:21:42;;;;;;;2.00;1.73;;;23.40;98.50;;;;;;4996342;28;20827;-56
2023/09/15 02:24:09;;;;;;;2.00;1.60;;;23.40;98.50;;;;;;5000722;28;20462;-54
2023/09/15 02:26:36;;;;;;;1.83;1.73;;;23.40;98.50;;;;;;5000989;28;20468;-53
2023/09/15 02:29:03;;;;;;;2.23;1.50;;;23.40;98.60;;;;;;4997678;28;20924;-53
2023/09/15 02:31:30;;;;;;;2.30;1.73;;;23.40;98.60;;;;;;4999963;28;20471;-50
2023/09/15 02:33:59;;;;;;;1.67;1.50;;;23.30;98.50;;;;;;4994962;28;20467;-55
2023/09/15 02:36:26;;;;;;;1.93;1.70;;;23.30;98.50;;;;;;4998906;28;20463;-60
2023/09/15 02:38:54;;;;;;;1.87;1.67;;;23.30;98.60;;;;;;4999981;28;20474;-57
2023/09/15 02:41:21;;;;;;;2.10;1.90;;;23.30;98.60;;;;;;5001030;28;20479;-58
2023/09/15 02:43:48;;;;;;;1.83;1.63;;;23.30;98.60;;;;;;4999260;28;20461;-56
2023/09/15 02:46:14;;;;;;;1.77;1.60;;;23.40;99.00;;;;;;4997438;28;20502;-54
2023/09/15 02:48:43;;;;;;;1.63;1.53;;;23.30;98.60;;;;;;4997606;28;20474;-54
2023/09/15 02:51:09;;;;;;;2.00;1.70;;;23.30;98.60;;;;;;5000251;28;20467;-56
2023/09/15 02:53:36;;;;;;;2.43;1.90;;;23.30;98.70;;;;;;5000041;28;20460;-58
2023/09/15 02:56:04;;;;;;;2.20;1.63;;;23.30;98.70;;;;;;5000469;28;20470;-50
2023/09/15 02:58:32;;;;;;;2.23;1.70;;;23.30;98.70;;;;;;4999757;28;21023;-56
2023/09/15 03:00:59;;;;;;;1.70;1.50;;;23.30;98.70;;;;;;4997275;28;21020;-54
2023/09/15 03:03:25;;;;;;;2.10;1.90;;;23.30;98.70;;;;;;4997335;28;20467;-52
2023/09/15 03:06:03;;;;;;;2.00;1.77;;;23.30;98.70;;;;;;4998869;28;20875;-51
2023/09/15 03:08:30;;;;;;;1.87;1.50;;;23.30;98.70;;;;;;4999161;28;20858;-54
2023/09/15 03:10:56;;;;;;;1.90;1.67;;;23.30;98.80;;;;;;4998576;28;20458;-53
2023/09/15 03:13:24;;;;;;;2.20;1.90;;;23.30;98.80;;;;;;4999113;28;21056;-52
2023/09/15 03:15:51;;;;;;;1.80;1.70;;;23.30;98.80;;;;;;4992536;28;20473;-52
2023/09/15 03:18:18;;;;;;;2.63;1.80;;;23.30;98.80;;;;;;4996568;28;21266;-54
2023/09/15 03:20:45;;;;;;;1.70;1.50;;;23.30;98.80;;;;;;4995159;28;20459;-51
2023/09/15 03:23:12;;;;;;;2.00;1.80;;;23.30;98.80;;;;;;4998188;28;20994;-51
2023/09/15 03:25:38;;;;;;;2.27;1.93;;;23.30;98.90;;;;;;4994803;28;20479;-57
2023/09/15 03:28:05;;;;;;;1.80;1.70;;;23.30;98.90;;;;;;4997926;28;20994;-54
2023/09/15 03:30:33;;;;;;;2.33;1.67;;;23.30;98.90;;;;;;4995292;28;20460;-55
2023/09/15 03:33:00;;;;;;;2.60;1.67;;;23.20;98.80;;;;;;4993331;28;20471;-51
2023/09/15 03:35:27;;;;;;;1.60;1.50;;;23.20;98.80;;;;;;4996351;28;20462;-51
2023/09/15 03:37:53;;;;;;;1.63;1.53;;;23.20;98.80;;;;;;4995392;28;20455;-55
2023/09/15 03:40:22;;;;;;;2.43;1.80;;;23.20;98.90;;;;;;4998080;28;20490;-54
2023/09/15 03:42:48;;;;;;;1.80;1.70;;;23.20;98.90;;;;;;4996359;28;20478;-50
2023/09/15 03:45:15;;;;;;;2.50;2.30;;;23.20;98.90;;;;;;4992386;28;20816;-54
2023/09/15 03:47:43;;;;;;;1.73;1.60;;;23.20;98.90;;;;;;4994440;28;20496;-55
2023/09/15 03:50:13;;;;;;;2.17;1.97;;;23.20;98.90;;;;;;4998126;28;20819;-55
2023/09/15 03:52:40;;;;;;;1.70;1.60;;;23.20;98.90;;;;;;4997472;28;21022;-52
2023/09/15 03:55:07;;;;;;;1.97;1.50;;;23.20;99.00;;;;;;4994685;28;20474;-49
2023/09/15 03:57:34;;;;;;;2.03;1.70;;;23.20;99.00;;;;;;4996110;28;20462;-56
2023/09/15 04:00:00;;;;;;;1.67;1.53;;;23.20;99.00;;;;;;4994901;28;21442;-54
2023/09/15 04:02:29;;;;;;;1.90;1.30;;;23.20;99.00;;;;;;4995415;28;20502;-52
2023/09/15 04:04:57;;;;;;;1.90;1.70;;;23.20;99.00;;;;;;4995479;28;20902;-52
2023/09/15 04:07:24;;;;;;;1.53;1.27;;;23.20;99.00;;;;;;4997304;28;20470;-54
2023/09/15 04:09:52;;;;;;;1.60;1.40;;;23.20;99.00;;;;;;4995197;28;20497;-55
2023/09/15 04:12:19;;;;;;;2.63;1.60;;;23.20;99.00;;;;;;4995400;28;20467;-53
2023/09/15 04:14:45;;;;;;;1.80;1.70;;;23.20;99.10;;;;;;4995768;28;20474;-55
2023/09/15 04:17:12;;;;;;;1.47;1.10;;;23.20;99.10;;;;;;4997533;28;20498;-54
2023/09/15 04:19:39;;;;;;;2.40;1.93;;;23.20;99.10;;;;;;4998383;28;20958;-54
2023/09/15 04:22:07;;;;;;;2.50;2.00;;;23.10;99.10;;;;;;4999123;28;20489;-49
2023/09/15 04:24:34;;;;;;;1.97;1.67;;;23.20;99.10;;;;;;5001092;28;20459;-51
2023/09/15 04:27:01;;;;;;;1.60;1.30;;;23.20;99.10;;;;;;4999944;28;20545;-49
2023/09/15 04:29:28;;;;;;;2.20;2.00;;;23.10;99.10;;;;;;4999515;28;20471;-51
2023/09/15 04:31:54;;;;;;;1.70;1.60;;;23.10;99.10;;;;;;4996964;28;20495;-54
2023/09/15 04:34:21;;;;;;;1.80;1.43;;;23.10;99.10;;;;;;5001341;28;20474;-54
2023/09/15 04:36:48;;;;;;;1.60;1.50;;;23.10;99.10;;;;;;4997772;28;20467;-52
2023/09/15 04:39:16;;;;;;;1.63;1.50;;;23.10;99.20;;;;;;5002092;28;20460;-57
2023/09/15 04:41:42;;;;;;;2.10;1.60;;;23.10;99.20;;;;;;4999862;28;20470;-54
2023/09/15 04:44:10;;;;;;;2.13;1.80;;;23.10;99.20;;;;;;5001597;28;20474;-54
2023/09/15 04:46:36;;;;;;;1.60;1.50;;;23.10;99.20;;;;;;4996641;28;20478;-54
2023/09/15 04:49:04;;;;;;;2.70;2.30;;;23.10;99.20;;;;;;5000036;28;20471;-55
2023/09/15 04:51:30;;;;;;;2.20;1.70;;;23.10;99.30;;;;;;5000860;28;20471;-58
2023/09/15 04:53:57;;;;;;;1.97;1.40;;;23.10;99.30;;;;;;5000510;28;20467;-50
2023/09/15 04:56:25;;;;;;;1.60;1.40;;;23.10;99.30;;;;;;4999536;28;20467;-49
2023/09/15 04:58:52;;;;;;;1.60;1.50;;;23.10;99.30;;;;;;4997764;28;21077;-57
2023/09/15 05:01:19;;;;;;;1.60;1.40;;;23.10;99.30;;;;;;4998821;28;23509;-53
2023/09/15 05:03:46;;;;;;;1.50;1.40;;;23.10;99.30;;;;;;5001430;28;21098;-54
2023/09/15 05:06:12;;;;;;;1.60;1.20;;;23.10;99.30;;;;;;5000081;28;20835;-54
2023/09/15 05:08:39;;;;;;;1.43;1.30;;;23.10;99.30;;;;;;5002807;28;20506;-56
2023/09/15 05:11:06;;;;;;;1.70;1.30;;;23.10;99.30;;;;;;4988419;28;20487;-50
2023/09/15 05:13:34;;;;;;;2.43;1.50;;;23.10;99.30;;;;;;4997691;28;20461;-59
2023/09/15 05:16:02;;;;;;;1.70;1.50;;;23.00;99.30;;;;;;4998358;28;20459;-53
2023/09/15 05:18:29;;;;;;;1.33;1.23;;;23.10;99.40;;;;;;5001541;28;20463;-54
2023/09/15 05:20:56;;;;;;;2.00;1.70;;;23.10;99.40;;;;;;4995321;28;20463;-57
2023/09/15 05:23:23;;;;;;;1.93;1.50;;;23.10;99.40;;;;;;5000820;28;20574;-53
2023/09/15 05:25:50;;;;;;;1.80;1.70;;;23.10;99.40;;;;;;5000925;28;20957;-51
2023/09/15 05:28:17;;;;;;;1.67;1.57;;;23.10;99.50;;;;;;4995892;28;20572;-51
2023/09/15 05:30:45;;;;;;;1.80;1.40;;;23.00;99.40;;;;;;4996594;28;20471;-56
2023/09/15 05:33:12;;;;;;;1.57;1.30;;;23.10;99.50;;;;;;4997606;28;20464;-49
2023/09/15 05:35:39;;;;;;;1.93;1.50;;;23.00;99.40;;;;;;4999221;28;20463;-51
2023/09/15 05:38:05;;;;;;;1.80;1.60;;;23.00;99.80;;;;;;4994338;28;20528;-50
2023/09/15 05:40:32;;;;;;;1.87;1.53;;;23.00;99.50;;;;;;4998465;28;20473;-55
2023/09/15 05:42:59;;;;;;;1.90;1.60;;;23.00;99.50;;;;;;4999467;28;21010;-54
2023/09/15 05:45:25;;;;;;;2.00;1.50;;;23.00;99.50;;;;;;4999785;28;20466;-54
2023/09/15 05:47:54;;;;;;;1.80;1.70;;;23.00;99.50;;;;;;4994202;28;20459;-52
2023/09/15 05:50:21;;;;;;;1.50;1.40;;;23.00;99.50;;;;;;4998040;28;20471;-54
2023/09/15 05:52:48;;;;;;;1.57;1.47;;;23.00;99.50;;;;;;4996668;28;20695;-48
2023/09/15 05:55:15;;;;;;;2.03;1.40;;;23.00;99.50;;;;;;4999074;28;20836;-53
2023/09/15 05:57:41;;;;;;;1.63;1.23;;;23.00;99.50;;;;;;4997532;28;20835;-54
2023/09/15 06:00:09;;;;;;;1.60;1.50;;;23.00;99.50;;;;;;4996578;28;20460;-49
2023/09/15 06:02:36;;;;;;;2.20;1.80;;;23.00;99.50;;;;;;4997387;28;20490;-51
2023/09/15 06:05:04;;;;;;;1.70;1.60;;;23.00;99.50;;;;;;4997120;28;22177;-51
2023/09/15 06:07:31;;;;;;;2.80;1.30;;;23.00;99.50;;;;;;4998772;28;20498;-55
2023/09/15 06:09:58;;;;;;;1.50;1.23;;;23.00;99.60;;;;;;4999786;28;20463;-51
2023/09/15 06:12:25;;;;;;;1.20;1.07;;;23.00;99.60;;;;;;4997949;28;21084;-49
2023/09/15 06:14:51;;;;;;;1.63;1.20;;;23.00;99.70;;;;;;4997184;28;20815;-56
2023/09/15 06:17:18;;;;;;;1.93;1.60;;;23.00;99.70;;;;;;4997154;28;20467;-50
2023/09/15 06:19:45;;;;;;;1.70;1.33;;;23.00;99.70;;;;;;4997328;28;20466;-56
2023/09/15 06:22:13;;;;;;;1.73;1.63;;;23.00;99.80;;;;;;4996825;28;20899;-54
2023/09/15 06:24:39;;;;;;;1.40;1.17;;;23.00;99.80;;;;;;4999318;28;20467;-53
2023/09/15 06:27:06;;;;;;;1.87;1.23;;;23.00;99.80;;;;;;4996815;28;20812;-51
2023/09/15 06:29:33;;;;;;;1.60;1.50;;;23.00;99.80;;;;;;4998457;28;20464;-52
2023/09/15 06:32:00;;;;;;;2.23;1.80;;;23.00;99.80;;;;;;4992496;28;20558;-57
2023/09/15 06:34:27;;;;;;;1.60;1.40;;;23.00;99.80;;;;;;4999247;28;20456;-51
2023/09/15 06:36:53;;;;;;;1.47;1.37;;;23.00;99.80;;;;;;4994548;28;20467;-51
2023/09/15 06:39:23;;;;;;;1.83;1.37;;;23.00;99.70;;;;;;4998584;28;21094;-50
2023/09/15 06:41:50;;;;;;;2.17;1.73;;;23.10;99.70;;;;;;4994510;28;20872;-58
2023/09/15 06:44:17;;;;;;;2.27;2.00;;;23.00;99.80;;;;;;4996143;28;20482;-46
2023/09/15 06:46:43;;;;;;;3.20;2.20;;;23.00;99.70;;;;;;4994696;28;20462;-53
2023/09/15 06:49:10;;;;;;;2.83;2.53;;;23.00;97.30;;;;;;4999065;28;20471;-53
2023/09/15 06:51:37;;;;;;;5.40;2.23;;;23.00;96.20;;;;;;4997774;28;20535;-55
2023/09/15 06:54:04;;;;;;;3.20;2.50;;;22.90;95.40;;;;;;4996005;28;20505;-53
2023/09/15 06:56:32;;;;;;;5.20;2.30;;;22.90;95.30;;;;;;4996697;28;20454;-57
2023/09/15 06:58:58;;;;;;;3.60;2.20;;;22.80;94.60;;;;;;4993778;28;20451;-55
2023/09/15 07:01:25;;;;;;;4.47;2.50;;;22.80;94.20;;;;;;4993380;28;20459;-53
2023/09/15 07:03:52;;;;;;;2.40;2.20;;;22.80;94.10;;;;;;4994853;28;20498;-53
2023/09/15 07:06:19;;;;;;;6.40;3.53;;;22.70;93.70;;;;;;4995778;28;20455;-52
2023/09/15 07:08:47;;;;;;;6.03;2.23;;;22.70;93.80;;;;;;4993641;28;20469;-52
2023/09/15 07:11:14;;;;;;;5.50;2.00;;;22.70;93.90;;;;;;4995057;28;20547;-59
2023/09/15 07:13:43;;;;;;;4.17;3.00;;;22.70;93.60;;;;;;4998437;28;20485;-53
2023/09/15 07:16:10;;;;;;;4.17;2.90;;;22.70;93.80;;;;;;4996533;28;20468;-49
2023/09/15 07:18:37;;;;;;;8.20;2.90;;;22.60;93.50;;;;;;4998574;28;20462;-52
2023/09/15 07:21:03;;;;;;;6.60;2.37;;;22.60;93.50;;;;;;4997369;28;20459;-51
2023/09/15 07:23:30;;;;;;;3.20;2.27;;;22.60;93.50;;;;;;4997248;28;21160;-56
2023/09/15 07:25:57;;;;;;;6.07;2.77;;;22.60;93.40;;;;;;4997464;28;20459;-59
2023/09/15 07:28:24;;;;;;;7.10;3.40;;;22.60;93.30;;;;;;5000016;28;21137;-53
2023/09/15 07:30:52;;;;;;;3.53;2.30;;;22.60;93.30;;;;;;4996150;28;20460;-54
2023/09/15 07:33:18;;;;;;;2.90;2.27;;;22.60;93.30;;;;;;4994926;28;20490;-60
2023/09/15 07:35:45;;;;;;;6.20;2.30;;;22.60;93.50;;;;;;4993210;28;20470;-61
2023/09/15 07:38:12;;;;;;;8.97;3.87;;;22.60;93.40;;;;;;4997019;28;20468;-52
2023/09/15 07:40:38;;;;;;;6.23;2.13;;;22.60;92.90;;;;;;4999484;28;20986;-53
2023/09/15 07:43:05;;;;;;;7.13;2.70;;;22.50;92.80;;;;;;4996421;28;21113;-56
2023/09/15 07:45:32;;;;;;;4.30;2.77;;;22.60;93.10;;;;;;4997169;28;20476;-54
2023/09/15 07:48:00;;;;;;;8.20;1.93;;;22.50;93.10;;;;;;4998129;28;20989;-57
2023/09/15 07:50:27;;;;;;;3.77;2.13;;;22.50;93.30;;;;;;5001729;28;20467;-55
2023/09/15 07:52:54;;;;;;;3.87;2.03;;;22.60;93.50;;;;;;4997355;28;20459;-57
2023/09/15 07:55:20;;;;;;;2.47;2.27;;;22.50;93.50;;;;;;5001804;28;20967;-52
2023/09/15 07:57:47;;;;;;;4.10;2.27;;;22.50;93.60;;;;;;5002076;28;20458;-58
2023/09/15 08:00:14;;;;;;;4.43;2.40;;;22.60;93.70;;;;;;4998472;28;20455;-54
2023/09/15 08:02:41;;;;;;;5.40;2.37;;;22.50;93.50;;;;;;5002599;28;20598;-53
2023/09/15 08:05:09;;;;;;;3.20;2.70;;;22.50;93.50;;;;;;4998824;28;20501;-50
2023/09/15 08:07:36;;;;;;;6.33;2.50;;;22.50;93.40;;;;;;5002953;28;20459;-54
2023/09/15 08:10:04;;;;;;;6.30;2.73;;;22.50;93.50;;;;;;4999247;28;20963;-55
2023/09/15 08:12:31;;;;;;;7.00;2.97;;;22.50;93.40;;;;;;5002550;28;20974;-52
2023/09/15 08:14:58;;;;;;;5.23;2.20;;;22.50;93.50;;;;;;4999247;28;20459;-52
2023/09/15 08:17:25;;;;;;;3.50;2.63;;;22.50;93.40;;;;;;5000606;28;20986;-55
2023/09/15 08:19:52;;;;;;;4.93;2.73;;;22.50;93.50;;;;;;4993891;28;20467;-57
2023/09/15 08:22:20;;;;;;;3.17;1.97;;;22.50;93.50;;;;;;5003196;28;20463;-60
2023/09/15 08:24:48;;;;;;;3.30;2.20;;;22.50;93.60;;;;;;4999078;28;20475;-54
2023/09/15 08:27:15;;;;;;;2.60;2.07;;;22.50;93.50;;;;;;5002345;28;20455;-56
2023/09/15 08:29:42;;;;;;;3.07;1.73;;;22.50;93.70;;;;;;5003081;28;20855;-54
2023/09/15 08:32:09;;;;;;;2.93;2.40;;;22.50;93.80;;;;;;5000652;28;20461;-51
2023/09/15 08:34:36;;;;;;;4.70;3.10;;;22.50;93.70;;;;;;4998551;28;21209;-52
2023/09/15 08:37:04;;;;;;;2.23;1.87;;;22.50;93.60;;;;;;4995765;28;20465;-58
2023/09/15 08:39:32;;;;;;;3.10;2.00;;;22.50;93.70;;;;;;5000225;28;20470;-52
2023/09/15 08:42:02;;;;;;;4.50;2.37;;;22.50;94.20;;;;;;4998627;28;20459;-56
2023/09/15 08:44:31;;;;;;;3.57;2.13;;;22.40;94.00;;;;;;4997924;28;20479;-58
2023/09/15 08:47:00;;;;;;;2.73;2.07;;;22.50;94.20;;;;;;4997567;28;20502;-51
2023/09/15 08:49:28;;;;;;;3.77;1.93;;;22.50;94.20;;;;;;5000580;28;20990;-47
2023/09/15 08:51:55;;;;;;;6.30;2.80;;;22.50;94.20;;;;;;4999371;28;20463;-54
2023/09/15 08:54:22;;;;;;;2.73;2.30;;;22.50;94.20;;;;;;4998922;28;20483;-54
2023/09/15 08:56:50;;;;;;;4.63;2.87;;;22.50;94.20;;;;;;4996906;28;20455;-52
2023/09/15 08:59:18;;;;;;;3.90;2.50;;;22.50;94.30;;;;;;5001920;28;20466;-55
2023/09/15 09:01:44;;;;;;;3.90;2.47;;;22.50;94.30;;;;;;4994018;28;20470;-54
2023/09/15 09:04:11;;;;;;;4.23;2.60;;;22.50;94.60;;;;;;5000635;28;20486;-51
2023/09/15 09:06:40;;;;;;;6.10;2.00;;;22.50;94.40;;;;;;4998169;28;20975;-48
2023/09/15 09:09:08;;;;;;;8.57;2.80;;;22.50;94.20;;;;;;5001238;28;20982;-51
2023/09/15 09:11:36;;;;;;;3.90;1.80;;;22.50;94.30;;;;;;4993369;28;20945;-51
2023/09/15 09:14:11;;;;;;;3.43;1.90;;;22.50;94.50;;;;;;4989083;28;20455;-51
2023/09/15 09:16:38;;;;;;;4.17;2.03;;;22.50;94.30;;;;;;4995505;28;20458;-51
2023/09/15 09:19:06;;;;;;;8.43;2.30;;;22.50;94.30;;;;;;4994793;28;20463;-48
2023/09/15 09:21:34;;;;;;;3.27;2.10;;;22.50;94.60;;;;;;4999733;28;20546;-49
2023/09/15 09:24:02;;;;;;;4.47;2.67;;;22.50;94.70;;;;;;5001211;28;20486;-51
2023/09/15 09:26:28;;;;;;;4.67;2.30;;;22.50;94.80;;;;;;5000433;28;20452;-47
2023/09/15 09:28:57;;;;;;;7.23;2.40;;;22.50;94.80;;;;;;4990462;28;20459;-52
2023/09/15 09:31:25;;;;;;;3.70;2.13;;;22.50;94.70;;;;;;4989659;28;20472;-49
2023/09/15 09:33:53;;;;;;;5.97;2.43;;;22.50;94.70;;;;;;4997043;28;21010;-53
2023/09/15 09:36:20;;;;;;;4.50;2.23;;;22.50;94.60;;;;;;4997471;28;20542;-54
2023/09/15 09:38:48;;;;;;;6.60;2.03;;;22.50;94.60;;;;;;4999152;28;20486;-52
2023/09/15 09:41:16;;;;;;;3.13;2.03;;;22.50;94.60;;;;;;4997743;28;20456;-47
2023/09/15 09:43:46;;;;;;;4.40;1.90;;;22.50;94.50;;;;;;4997337;28;20483;-50
2023/09/15 09:46:13;;;;;;;3.40;2.93;;;22.50;94.60;;;;;;4996749;28;20465;-54
2023/09/15 09:48:44;;;;;;;3.70;2.20;;;22.50;94.50;;;;;;4996270;28;20463;-50
2023/09/15 09:51:13;;;;;;;3.40;1.90;;;22.50;94.50;;;;;;4990447;28;20460;-51
2023/09/15 09:53:40;;;;;;;4.40;2.10;;;22.50;94.50;;;;;;4992288;28;21235;-51
2023/09/15 09:56:08;;;;;;;3.00;2.30;;;22.50;94.50;;;;;;4996081;28;20473;-52
2023/09/15 09:58:36;;;;;;;1.90;1.50;;;22.50;94.50;;;;;;4996600;28;20485;-52
2023/09/15 10:01:04;;;;;;;4.03;2.03;;;22.50;94.50;;;;;;4996494;28;20475;-55
2023/09/15 10:03:31;;;;;;;3.60;2.03;;;22.50;94.50;;;;;;4996583;28;20487;-52
2023/09/15 10:06:00;;;;;;;4.07;2.20;;;22.50;94.60;;;;;;4994618;28;20459;-49
2023/09/15 10:08:27;;;;;;;3.70;2.00;;;22.50;94.60;;;;;;4999315;28;20463;-47
2023/09/15 10:10:54;;;;;;;6.57;3.27;;;22.50;94.70;;;;;;4996018;28;20796;-49
2023/09/15 10:13:22;;;;;;;5.13;2.27;;;22.50;94.70;;;;;;4998940;28;20467;-48
2023/09/15 10:15:51;;;;;;;5.90;2.37;;;22.50;94.80;;;;;;4997841;28;20468;-50
2023/09/15 10:18:20;;;;;;;2.07;1.87;;;22.50;94.80;;;;;;5001515;28;20509;-47
2023/09/15 10:20:50;;;;;;;3.50;2.10;;;22.50;94.90;;;;;;4998554;28;20972;-54
2023/09/15 10:23:18;;;;;;;5.30;2.13;;;22.50;94.90;;;;;;4997929;28;21003;-52
2023/09/15 10:25:49;;;;;;;5.90;2.47;;;22.50;95.00;;;;;;4999006;28;20983;-49
2023/09/15 10:28:18;;;;;;;3.00;2.00;;;22.50;95.10;;;;;;4995176;28;20467;-51
2023/09/15 10:30:45;;;;;;;3.23;2.00;;;22.50;95.10;;;;;;4992961;28;20483;-52
2023/09/15 10:33:12;;;;;;;5.20;1.73;;;22.50;95.00;;;;;;4993019;28;20455;-48
2023/09/15 10:35:39;;;;;;;4.03;2.00;;;22.50;94.80;;;;;;4995735;28;20468;-52
2023/09/15 10:38:07;;;;;;;2.77;2.20;;;22.50;95.00;;;;;;4996063;28;20467;-53
2023/09/15 10:40:48;;;;;;;2.70;2.00;;;22.50;95.10;;;;;;4998007;28;20494;-50
2023/09/15 10:43:17;;;;;;;3.60;1.73;;;22.50;95.10;;;;;;4998637;28;20464;-52
2023/09/15 10:45:54;;;;;;;5.73;1.80;;;22.50;95.10;;;;;;4998544;28;20475;-48
2023/09/15 10:48:21;;;;;;;2.53;1.83;;;22.50;95.20;;;;;;4999948;28;20462;-53
2023/09/15 10:50:47;;;;;;;6.23;1.87;;;22.50;95.10;;;;;;4996178;28;21050;-48
2023/09/15 10:53:15;;;;;;;3.60;2.03;;;22.50;95.10;;;;;;4999188;28;20722;-47
2023/09/15 10:55:42;;;;;;;3.50;2.00;;;22.50;95.20;;;;;;4995823;28;20467;-50
2023/09/15 10:58:11;;;;;;;5.80;2.13;;;22.50;95.20;;;;;;4994639;28;20462;-55
2023/09/15 11:00:40;;;;;;;4.13;1.93;;;22.50;95.20;;;;;;4998827;28;20466;-49
2023/09/15 11:03:07;;;;;;;4.83;2.03;;;22.60;95.20;;;;;;4994708;28;20812;-56
2023/09/15 11:05:36;;;;;;;5.17;1.80;;;22.50;95.20;;;;;;4992669;28;20486;-52
2023/09/15 11:08:03;;;;;;;2.57;2.10;;;22.50;95.30;;;;;;4995907;28;20467;-52
2023/09/15 11:10:32;;;;;;;4.40;2.80;;;22.50;95.30;;;;;;4999059;28;20463;-48
2023/09/15 11:13:01;;;;;;;4.63;2.27;;;22.50;95.40;;;;;;4991343;28;21041;-46
2023/09/15 11:15:29;;;;;;;6.27;1.97;;;22.50;95.40;;;;;;4986425;28;20498;-59
2023/09/15 11:17:57;;;;;;;4.23;2.07;;;22.60;95.50;;;;;;4989014;28;20468;-59
2023/09/15 11:20:24;;;;;;;3.90;2.27;;;22.60;95.60;;;;;;4995963;28;20471;-56
2023/09/15 11:22:56;;;;;;;3.67;1.93;;;22.60;95.40;;;;;;4991630;28;20460;-59
2023/09/15 11:25:23;;;;;;;4.53;2.07;;;22.60;95.40;;;;;;4995619;28;20487;-58
2023/09/15 11:27:50;;;;;;;5.30;2.20;;;22.60;95.20;;;;;;4998234;28;20467;-53
2023/09/15 11:30:17;;;;;;;6.33;2.67;;;22.60;95.20;;;;;;4993338;28;20473;-56
2023/09/15 11:32:46;;;;;;;8.00;2.80;;;22.60;95.10;;;;;;4995148;28;20549;-57
2023/09/15 11:35:13;;;;;;;2.50;1.67;;;22.60;94.90;;;;;;4992341;28;20473;-55
2023/09/15 11:37:40;;;;;;;2.90;2.10;;;22.60;94.50;;;;;;4996705;28;20986;-52
2023/09/15 11:40:08;;;;;;;9.37;3.13;;;22.60;94.00;;;;;;4989209;28;20877;-57
2023/09/15 11:42:36;;;;;;;3.30;2.40;;;22.60;93.90;;;;;;4989620;28;20459;-47
2023/09/15 11:45:04;;;;;;;3.63;2.17;;;22.60;93.90;;;;;;4992959;28;20507;-57
2023/09/15 11:47:32;;;;;;;2.47;2.20;;;22.60;93.80;;;;;;4990581;28;20490;-53
2023/09/15 11:50:03;;;;;;;9.47;2.80;;;22.60;93.80;;;;;;4989020;28;20828;-53
2023/09/15 11:52:30;;;;;;;5.57;2.10;;;22.60;93.80;;;;;;4981406;28;20963;-59
2023/09/15 11:54:58;;;;;;;5.00;1.80;;;22.70;93.90;;;;;;4981680;28;20478;-52
2023/09/15 11:57:25;;;;;;;4.10;1.97;;;22.70;93.80;;;;;;4980766;28;21006;-56
2023/09/15 11:59:52;;;;;;;4.73;3.07;;;22.70;93.60;;;;;;4977024;28;20456;-55
2023/09/15 12:02:20;;;;;;;3.30;2.20;;;22.70;93.50;;;;;;4976547;28;20463;-57
2023/09/15 12:04:47;;;;;;;3.57;2.00;;;22.70;93.30;;;;;;4983571;28;20561;-56
2023/09/15 12:07:15;;;;;;;3.23;1.93;;;22.70;93.30;;;;;;4981102;28;20459;-58
2023/09/15 12:09:42;;;;;;;3.47;2.00;;;22.80;93.40;;;;;;4978107;28;20460;-48
2023/09/15 12:12:11;;;;;;;3.53;2.20;;;22.80;93.20;;;;;;4979711;28;20465;-53
2023/09/15 12:14:42;;;;;;;2.70;1.90;;;22.80;93.10;;;;;;4979578;28;20474;-59
2023/09/15 12:17:09;;;;;;;5.03;2.20;;;22.80;93.00;;;;;;4974292;28;20990;-53
2023/09/15 12:19:36;;;;;;;8.40;3.13;;;22.80;93.10;;;;;;4981266;28;20804;-47
2023/09/15 12:22:03;;;;;;;3.80;2.00;;;22.80;93.10;;;;;;4983735;28;20463;-45
2023/09/15 12:24:32;;;;;;;2.30;2.10;;;22.80;93.20;;;;;;4983807;28;20991;-49
2023/09/15 12:27:02;;;;;;;3.77;2.20;;;22.90;93.20;;;;;;4984285;28;20464;-54
2023/09/15 12:29:29;;;;;;;3.83;2.30;;;22.90;93.60;;;;;;4983306;28;20479;-54
2023/09/15 12:31:57;;;;;;;3.10;1.90;;;22.90;93.50;;;;;;4985673;28;20471;-59
2023/09/15 12:34:24;;;;;;;6.17;2.03;;;22.90;93.80;;;;;;4993371;28;20464;-54
2023/09/15 12:36:53;;;;;;;11.17;3.17;;;23.10;93.90;;;;;;4998514;28;21061;-49
2023/09/15 12:39:20;;;;;;;3.77;2.60;;;23.00;94.10;;;;;;5001468;28;20507;-53
2023/09/15 12:41:58;;;;;;;12.73;2.00;;;23.00;93.60;;;;;;4999541;28;20457;-55
2023/09/15 12:44:25;;;;;;;3.30;2.10;;;23.10;93.80;;;;;;4994214;28;20479;-50
2023/09/15 12:46:52;;;;;;;5.17;2.30;;;23.10;93.90;;;;;;4998195;28;21564;-53
2023/09/15 12:49:20;;;;;;;4.50;2.40;;;23.10;93.90;;;;;;5001584;28;20479;-46
2023/09/15 12:51:47;;;;;;;3.53;2.17;;;23.10;93.70;;;;;;4999461;28;20467;-48
2023/09/15 12:54:14;;;;;;;3.50;2.60;;;23.10;93.60;;;;;;5000478;28;20471;-52